This is the latest recevied weather packets stored in our database for station/object DK6SC-10. If no packets are shown the sender has not sent any weather packets the latest 1 day(s).
| Time | Temp. | Humidity | Pressure | Rain* | Wind** | Luminosity | Snow |
|---|---|---|---|---|---|---|---|
| 1778092372 | 11.11° C | 88% | 972.4 hPa | - | - | - | - |
| 1778086071 | 13.33° C | 75% | 971.9 hPa | - | - | - | - |
| 1778085171 | 13.89° C | 72% | 971.9 hPa | - | - | - | - |
| 1778083371 | 15° C | 67% | 971.7 hPa | - | - | - | - |
| 1778082471 | 15° C | 67% | 971.6 hPa | - | - | - | - |
| 1778081571 | 15° C | 66% | 971.5 hPa | - | - | - | - |
| 1778080671 | 15.56° C | 65% | 971.4 hPa | - | - | - | - |
| 1778076171 | 19.44° C | 54% | 970.5 hPa | - | - | - | - |
| 1778068970 | 22.22° C | 38% | 970.2 hPa | - | - | - | - |
| 1778068070 | 22.78° C | 37% | 970.3 hPa | - | - | - | - |
| 1778067170 | 25° C | 30% | 970.2 hPa | - | - | - | - |
| 1778059969 | 31.11° C | 23% | 970.8 hPa | - | - | - | - |
| 1778059069 | 35° C | 20% | 970.9 hPa | - | - | - | - |
| 1778058169 | 29.44° C | 27% | 970.9 hPa | - | - | - | - |
| 1778057269 | 28.89° C | 28% | 971.1 hPa | - | - | - | - |
| 1778056369 | 30° C | 26% | 971.1 hPa | - | - | - | - |
| 1778055469 | 33.89° C | 22% | 971.1 hPa | - | - | - | - |
| 1778054569 | 35.56° C | 20% | 971.3 hPa | - | - | - | - |
| 1778053669 | 28.89° C | 29% | 971.3 hPa | - | - | - | - |
| 1778052768 | 23.89° C | 35% | 971.4 hPa | - | - | - | - |
| 1778050968 | 27.22° C | 32% | 971.1 hPa | - | - | - | - |
| 1778049168 | 31.11° C | 25% | 971.1 hPa | - | - | - | - |
| 1778048268 | 27.22° C | 32% | 971.4 hPa | - | - | - | - |
| 1778047368 | 22.78° C | 50% | 971.2 hPa | - | - | - | - |
| 1778046468 | 14.44° C | 82% | 971.3 hPa | - | - | - | - |
* Rain since midnight (hover to see other rain measurements)
** Current wind speed in m/s (hover to see current wind gust speed)